Iliysk North Airport

Jump to: basic info | weather | comments

Related pages: nearby airports | nearby navaids

Basic information (top)

Location: lon 43.998299, lat 77.139099, elev 2,343 ft / 714 m msl
Status: small_airport

Weather (top)

Current conditions for Almaty Airport 39nm (72km) S (rec'd 2014/10/26 07:00Z):

UAAA 260700Z 27003MPS 220V310 9999 SCT100 BKN200 17/06 Q1010 R88/65D NOSIG

Airport forecast for Almaty Airport 39nm (72km) S (rec'd 2014/10/26 06:18Z):

TAF TAF UAAA 260500Z 2606/2706 31006MPS 5000 BR FU BKN020CB BKN100 TX15/2609Z TNM02/2701Z 
      TEMPO 2606/2612 23008G13MPS 3000 SHRA BR BKN007CB OVC100 
      TEMPO 2612/2624 28009MPS 1000 SHRASN BR BKN004 OVC007CB 
      BECMG 2700/2701 34005MPS 3000 SN BR OVC007 
      TEMPO 2700/2706 0500 FZFG VV002

Latest comments (top)

No comments yet for Iliysk North Airport

More... (top)

See also NOTAMs and nearby airports and navaids, or visit the Iliysk North Airport page at the main OurAirports website..